sensor_id;sensor_type;location;lat;lon;timestamp;pressure;altitude;pressure_sealevel;temperature;humidity
70256;BME280;57669;52.624;-1.688;2023-02-19T00:01:17;101561.64;;;7.89;53.33
70256;BME280;57669;52.624;-1.688;2023-02-19T00:03:42;101570.40;;;7.64;53.70
70256;BME280;57669;52.624;-1.688;2023-02-19T00:06:09;101572.64;;;8.03;52.95
70256;BME280;57669;52.624;-1.688;2023-02-19T00:08:34;101576.40;;;7.88;52.77
70256;BME280;57669;52.624;-1.688;2023-02-19T00:11:00;101583.17;;;7.45;53.39
70256;BME280;57669;52.624;-1.688;2023-02-19T00:13:24;101589.24;;;7.49;53.86
70256;BME280;57669;52.624;-1.688;2023-02-19T00:15:50;101586.78;;;7.54;53.24
70256;BME280;57669;52.624;-1.688;2023-02-19T00:18:15;101590.84;;;7.66;53.53
70256;BME280;57669;52.624;-1.688;2023-02-19T00:20:41;101595.93;;;7.92;53.37
70256;BME280;57669;52.624;-1.688;2023-02-19T00:23:07;101600.93;;;7.63;53.67
70256;BME280;57669;52.624;-1.688;2023-02-19T00:25:36;101605.03;;;7.61;53.29
70256;BME280;57669;52.624;-1.688;2023-02-19T00:27:59;101606.47;;;7.52;53.96
70256;BME280;57669;52.624;-1.688;2023-02-19T00:30:24;101613.19;;;8.03;52.98
70256;BME280;57669;52.624;-1.688;2023-02-19T00:32:50;101614.04;;;7.65;53.58
70256;BME280;57669;52.624;-1.688;2023-02-19T00:35:16;101619.42;;;7.52;53.98
70256;BME280;57669;52.624;-1.688;2023-02-19T00:37:42;101626.08;;;6.89;55.84
70256;BME280;57669;52.624;-1.688;2023-02-19T00:40:08;101620.62;;;7.07;55.14
70256;BME280;57669;52.624;-1.688;2023-02-19T00:42:33;101617.83;;;6.85;56.27
70256;BME280;57669;52.624;-1.688;2023-02-19T00:44:59;101617.44;;;6.89;55.93
70256;BME280;57669;52.624;-1.688;2023-02-19T00:47:25;101615.07;;;6.59;56.74
70256;BME280;57669;52.624;-1.688;2023-02-19T00:49:51;101604.03;;;7.38;55.34
70256;BME280;57669;52.624;-1.688;2023-02-19T00:52:16;101604.94;;;6.66;56.64
70256;BME280;57669;52.624;-1.688;2023-02-19T00:54:42;101601.60;;;7.02;56.14
70256;BME280;57669;52.624;-1.688;2023-02-19T00:57:08;101606.13;;;6.67;57.36
70256;BME280;57669;52.624;-1.688;2023-02-19T00:59:34;101608.75;;;6.80;56.97
70256;BME280;57669;52.624;-1.688;2023-02-19T01:01:59;101608.83;;;6.94;56.06
70256;BME280;57669;52.624;-1.688;2023-02-19T01:04:25;101607.55;;;6.61;56.67
70256;BME280;57669;52.624;-1.688;2023-02-19T01:06:51;101619.03;;;6.68;57.06
70256;BME280;57669;52.624;-1.688;2023-02-19T01:09:17;101623.13;;;6.40;57.67
70256;BME280;57669;52.624;-1.688;2023-02-19T01:11:43;101617.78;;;6.44;58.25
70256;BME280;57669;52.624;-1.688;2023-02-19T01:14:09;101622.13;;;6.84;56.99
70256;BME280;57669;52.624;-1.688;2023-02-19T01:16:34;101619.57;;;6.94;55.86
70256;BME280;57669;52.624;-1.688;2023-02-19T01:19:00;101622.01;;;6.89;56.25
70256;BME280;57669;52.624;-1.688;2023-02-19T01:21:28;101616.01;;;6.80;57.05
70256;BME280;57669;52.624;-1.688;2023-02-19T01:23:53;101612.50;;;6.52;57.72
70256;BME280;57669;52.624;-1.688;2023-02-19T01:26:21;101615.01;;;6.35;58.03
70256;BME280;57669;52.624;-1.688;2023-02-19T01:28:43;101617.25;;;6.78;57.32
70256;BME280;57669;52.624;-1.688;2023-02-19T01:31:12;101621.64;;;6.47;57.96
70256;BME280;57669;52.624;-1.688;2023-02-19T01:33:34;101622.09;;;6.61;57.69
70256;BME280;57669;52.624;-1.688;2023-02-19T01:36:03;101635.45;;;6.65;57.05
70256;BME280;57669;52.624;-1.688;2023-02-19T01:38:26;101634.81;;;6.70;57.59
70256;BME280;57669;52.624;-1.688;2023-02-19T01:40:54;101637.53;;;6.72;56.44
70256;BME280;57669;52.624;-1.688;2023-02-19T01:43:18;101646.76;;;6.42;57.43
70256;BME280;57669;52.624;-1.688;2023-02-19T01:45:44;101653.89;;;7.33;55.77
70256;BME280;57669;52.624;-1.688;2023-02-19T01:48:11;101657.13;;;6.59;57.81
70256;BME280;57669;52.624;-1.688;2023-02-19T01:50:39;101657.66;;;6.88;56.90
70256;BME280;57669;52.624;-1.688;2023-02-19T01:53:02;101653.94;;;6.77;57.60
70256;BME280;57669;52.624;-1.688;2023-02-19T01:55:26;101662.46;;;6.45;58.13
70256;BME280;57669;52.624;-1.688;2023-02-19T01:57:54;101655.59;;;6.50;58.86
70256;BME280;57669;52.624;-1.688;2023-02-19T02:00:18;101665.51;;;6.81;58.35
70256;BME280;57669;52.624;-1.688;2023-02-19T02:02:48;101667.03;;;6.57;57.94
70256;BME280;57669;52.624;-1.688;2023-02-19T02:05:17;101683.16;;;6.70;57.53
70256;BME280;57669;52.624;-1.688;2023-02-19T02:07:35;101671.33;;;6.63;57.16
70256;BME280;57669;52.624;-1.688;2023-02-19T02:10:02;101677.72;;;6.57;57.67
70256;BME280;57669;52.624;-1.688;2023-02-19T02:12:27;101682.71;;;6.85;59.06
70256;BME280;57669;52.624;-1.688;2023-02-19T02:14:52;101682.21;;;6.17;59.78
70256;BME280;57669;52.624;-1.688;2023-02-19T02:17:23;101689.56;;;6.62;58.67
70256;BME280;57669;52.624;-1.688;2023-02-19T02:20:00;101684.21;;;6.69;57.89
70256;BME280;57669;52.624;-1.688;2023-02-19T02:22:12;101690.00;;;6.74;58.36
70256;BME280;57669;52.624;-1.688;2023-02-19T02:24:51;101699.60;;;6.56;58.80
70256;BME280;57669;52.624;-1.688;2023-02-19T02:27:12;101711.67;;;7.23;57.51
70256;BME280;57669;52.624;-1.688;2023-02-19T02:31:56;101720.21;;;7.24;57.25
70256;BME280;57669;52.624;-1.688;2023-02-19T02:34:22;101722.44;;;7.62;55.99
70256;BME280;57669;52.624;-1.688;2023-02-19T02:36:48;101727.28;;;7.51;55.79
70256;BME280;57669;52.624;-1.688;2023-02-19T02:39:13;101734.25;;;7.08;56.72
70256;BME280;57669;52.624;-1.688;2023-02-19T02:41:41;101728.00;;;6.83;57.06
70256;BME280;57669;52.624;-1.688;2023-02-19T02:44:01;101721.24;;;7.06;56.62
70256;BME280;57669;52.624;-1.688;2023-02-19T02:46:33;101713.37;;;6.55;56.50
70256;BME280;57669;52.624;-1.688;2023-02-19T02:48:55;101721.81;;;7.36;55.73
70256;BME280;57669;52.624;-1.688;2023-02-19T02:51:23;101724.81;;;7.08;56.32
70256;BME280;57669;52.624;-1.688;2023-02-19T02:53:48;101724.59;;;6.66;57.20
70256;BME280;57669;52.624;-1.688;2023-02-19T02:56:11;101723.96;;;6.47;58.10
70256;BME280;57669;52.624;-1.688;2023-02-19T02:58:36;101715.64;;;6.35;59.26
70256;BME280;57669;52.624;-1.688;2023-02-19T03:01:05;101712.92;;;6.46;58.73
70256;BME280;57669;52.624;-1.688;2023-02-19T03:03:29;101713.97;;;6.25;59.62
70256;BME280;57669;52.624;-1.688;2023-02-19T03:05:56;101720.41;;;6.47;59.27
70256;BME280;57669;52.624;-1.688;2023-02-19T03:08:22;101724.21;;;6.44;58.75
70256;BME280;57669;52.624;-1.688;2023-02-19T03:10:49;101727.82;;;6.04;60.13
70256;BME280;57669;52.624;-1.688;2023-02-19T03:13:14;101731.49;;;6.96;58.17
70256;BME280;57669;52.624;-1.688;2023-02-19T03:15:40;101737.27;;;6.57;58.91
70256;BME280;57669;52.624;-1.688;2023-02-19T03:18:05;101737.07;;;6.82;57.85
70256;BME280;57669;52.624;-1.688;2023-02-19T03:20:29;101732.44;;;6.52;58.30
70256;BME280;57669;52.624;-1.688;2023-02-19T03:22:55;101743.52;;;6.85;57.98
70256;BME280;57669;52.624;-1.688;2023-02-19T03:25:22;101735.00;;;6.05;59.17
70256;BME280;57669;52.624;-1.688;2023-02-19T03:27:47;101748.68;;;5.91;60.35
70256;BME280;57669;52.624;-1.688;2023-02-19T03:30:14;101754.66;;;6.49;59.17
70256;BME280;57669;52.624;-1.688;2023-02-19T03:32:41;101763.54;;;6.42;60.65
70256;BME280;57669;52.624;-1.688;2023-02-19T03:35:06;101769.86;;;6.44;59.74
70256;BME280;57669;52.624;-1.688;2023-02-19T03:37:34;101779.27;;;6.82;58.18
70256;BME280;57669;52.624;-1.688;2023-02-19T03:39:55;101783.84;;;6.64;59.16
70256;BME280;57669;52.624;-1.688;2023-02-19T03:42:28;101783.33;;;6.87;58.86
70256;BME280;57669;52.624;-1.688;2023-02-19T03:44:55;101794.53;;;6.87;58.20
70256;BME280;57669;52.624;-1.688;2023-02-19T03:47:16;101814.34;;;7.51;57.55
70256;BME280;57669;52.624;-1.688;2023-02-19T03:49:42;101836.08;;;7.67;56.44
70256;BME280;57669;52.624;-1.688;2023-02-19T03:52:09;101842.35;;;7.19;57.35
70256;BME280;57669;52.624;-1.688;2023-02-19T03:54:34;101851.76;;;6.85;57.55
70256;BME280;57669;52.624;-1.688;2023-02-19T03:56:57;101847.66;;;7.01;56.48
70256;BME280;57669;52.624;-1.688;2023-02-19T03:59:25;101857.29;;;6.78;56.61
70256;BME280;57669;52.624;-1.688;2023-02-19T04:01:49;101855.50;;;6.64;57.34
70256;BME280;57669;52.624;-1.688;2023-02-19T04:04:15;101861.60;;;6.52;57.43
70256;BME280;57669;52.624;-1.688;2023-02-19T04:06:37;101870.60;;;5.96;57.83
70256;BME280;57669;52.624;-1.688;2023-02-19T04:09:08;101870.50;;;6.22;57.83
70256;BME280;57669;52.624;-1.688;2023-02-19T04:11:29;101867.88;;;6.18;57.60
70256;BME280;57669;52.624;-1.688;2023-02-19T04:13:57;101873.01;;;5.98;57.48
70256;BME280;57669;52.624;-1.688;2023-02-19T04:16:20;101875.82;;;5.96;57.19
70256;BME280;57669;52.624;-1.688;2023-02-19T04:18:47;101877.99;;;6.32;56.64
70256;BME280;57669;52.624;-1.688;2023-02-19T04:21:10;101871.49;;;5.78;58.01
70256;BME280;57669;52.624;-1.688;2023-02-19T04:23:39;101870.58;;;5.76;57.86
70256;BME280;57669;52.624;-1.688;2023-02-19T04:26:02;101872.37;;;5.50;58.32
70256;BME280;57669;52.624;-1.688;2023-02-19T04:28:27;101870.91;;;5.88;57.40
70256;BME280;57669;52.624;-1.688;2023-02-19T04:30:51;101884.69;;;5.53;57.22
70256;BME280;57669;52.624;-1.688;2023-02-19T04:33:17;101893.18;;;5.92;55.82
70256;BME280;57669;52.624;-1.688;2023-02-19T04:35:43;101889.82;;;5.36;57.05
70256;BME280;57669;52.624;-1.688;2023-02-19T04:38:09;101896.23;;;5.68;56.68
70256;BME280;57669;52.624;-1.688;2023-02-19T04:40:34;101896.21;;;5.89;56.31
70256;BME280;57669;52.624;-1.688;2023-02-19T04:43:00;101900.38;;;5.12;56.88
70256;BME280;57669;52.624;-1.688;2023-02-19T04:45:25;101905.91;;;4.90;58.27
70256;BME280;57669;52.624;-1.688;2023-02-19T04:47:50;101904.47;;;5.64;56.81
70256;BME280;57669;52.624;-1.688;2023-02-19T04:50:15;101917.26;;;4.69;58.89
70256;BME280;57669;52.624;-1.688;2023-02-19T04:52:41;101913.67;;;5.18;57.29
70256;BME280;57669;52.624;-1.688;2023-02-19T04:55:08;101917.71;;;5.60;55.24
70256;BME280;57669;52.624;-1.688;2023-02-19T04:57:32;101924.43;;;6.09;54.76
70256;BME280;57669;52.624;-1.688;2023-02-19T04:59:57;101936.05;;;5.40;55.61
70256;BME280;57669;52.624;-1.688;2023-02-19T05:02:23;101950.02;;;5.24;56.22
70256;BME280;57669;52.624;-1.688;2023-02-19T05:04:48;101962.20;;;5.33;55.41
70256;BME280;57669;52.624;-1.688;2023-02-19T05:07:14;101959.03;;;5.20;55.34
70256;BME280;57669;52.624;-1.688;2023-02-19T05:09:39;101955.66;;;5.15;55.74
70256;BME280;57669;52.624;-1.688;2023-02-19T05:12:05;101952.11;;;4.80;56.05
70256;BME280;57669;52.624;-1.688;2023-02-19T05:14:30;101952.03;;;5.39;54.86
70256;BME280;57669;52.624;-1.688;2023-02-19T05:16:56;101953.64;;;6.05;52.63
70256;BME280;57669;52.624;-1.688;2023-02-19T05:19:21;101958.17;;;5.83;53.24
70256;BME280;57669;52.624;-1.688;2023-02-19T05:21:46;101961.19;;;6.25;52.14
70256;BME280;57669;52.624;-1.688;2023-02-19T05:24:12;101956.75;;;6.23;52.20
70256;BME280;57669;52.624;-1.688;2023-02-19T05:26:38;101960.84;;;5.34;54.43
70256;BME280;57669;52.624;-1.688;2023-02-19T05:29:03;101968.07;;;5.26;54.93
70256;BME280;57669;52.624;-1.688;2023-02-19T05:31:29;101967.32;;;5.11;55.10
70256;BME280;57669;52.624;-1.688;2023-02-19T05:33:54;101972.38;;;5.04;54.48
70256;BME280;57669;52.624;-1.688;2023-02-19T05:36:21;101973.20;;;5.29;55.13
70256;BME280;57669;52.624;-1.688;2023-02-19T05:38:45;101973.38;;;5.79;54.09
70256;BME280;57669;52.624;-1.688;2023-02-19T05:41:12;101976.15;;;5.52;54.54
70256;BME280;57669;52.624;-1.688;2023-02-19T05:43:36;101975.52;;;5.81;53.58
70256;BME280;57669;52.624;-1.688;2023-02-19T05:46:02;101977.52;;;4.99;54.73
70256;BME280;57669;52.624;-1.688;2023-02-19T05:48:27;101986.57;;;5.68;53.30
70256;BME280;57669;52.624;-1.688;2023-02-19T05:50:52;101986.94;;;6.00;51.85
70256;BME280;57669;52.624;-1.688;2023-02-19T05:53:17;101993.17;;;5.91;52.37
70256;BME280;57669;52.624;-1.688;2023-02-19T05:55:43;101998.14;;;5.88;52.09
70256;BME280;57669;52.624;-1.688;2023-02-19T05:58:08;101989.65;;;6.18;51.41
70256;BME280;57669;52.624;-1.688;2023-02-19T06:00:34;101984.30;;;6.39;51.29
70256;BME280;57669;52.624;-1.688;2023-02-19T06:03:00;101980.81;;;6.66;50.76
70256;BME280;57669;52.624;-1.688;2023-02-19T06:05:25;101982.38;;;6.03;51.37
70256;BME280;57669;52.624;-1.688;2023-02-19T06:07:50;101990.95;;;6.30;51.59
70256;BME280;57669;52.624;-1.688;2023-02-19T06:10:16;102002.82;;;5.54;53.43
70256;BME280;57669;52.624;-1.688;2023-02-19T06:12:41;102008.21;;;5.64;53.94
70256;BME280;57669;52.624;-1.688;2023-02-19T06:15:07;102022.65;;;4.68;56.25
70256;BME280;57669;52.624;-1.688;2023-02-19T06:17:32;102030.44;;;5.25;55.25
70256;BME280;57669;52.624;-1.688;2023-02-19T06:19:57;102027.65;;;4.64;55.29
70256;BME280;57669;52.624;-1.688;2023-02-19T06:22:23;102026.06;;;5.17;55.68
70256;BME280;57669;52.624;-1.688;2023-02-19T06:24:49;102026.74;;;4.90;56.25
70256;BME280;57669;52.624;-1.688;2023-02-19T06:27:14;102020.74;;;4.82;56.53
70256;BME280;57669;52.624;-1.688;2023-02-19T06:29:40;102018.09;;;5.33;55.70
70256;BME280;57669;52.624;-1.688;2023-02-19T06:32:05;102022.05;;;4.49;58.02
70256;BME280;57669;52.624;-1.688;2023-02-19T06:34:31;102020.43;;;4.72;57.07
70256;BME280;57669;52.624;-1.688;2023-02-19T06:36:56;102024.83;;;4.55;57.60
70256;BME280;57669;52.624;-1.688;2023-02-19T06:39:21;102031.74;;;5.24;56.35
70256;BME280;57669;52.624;-1.688;2023-02-19T06:44:13;102043.58;;;5.32;55.14
70256;BME280;57669;52.624;-1.688;2023-02-19T06:46:37;102052.72;;;4.78;57.18
70256;BME280;57669;52.624;-1.688;2023-02-19T06:49:04;102050.90;;;5.35;56.22
70256;BME280;57669;52.624;-1.688;2023-02-19T06:51:28;102051.89;;;4.94;56.67
70256;BME280;57669;52.624;-1.688;2023-02-19T06:53:54;102053.52;;;5.36;56.30
70256;BME280;57669;52.624;-1.688;2023-02-19T06:56:22;102062.63;;;5.40;55.63
70256;BME280;57669;52.624;-1.688;2023-02-19T06:58:44;102061.02;;;5.01;56.28
70256;BME280;57669;52.624;-1.688;2023-02-19T07:01:10;102068.42;;;5.14;55.38
70256;BME280;57669;52.624;-1.688;2023-02-19T07:03:35;102072.28;;;5.68;54.78
70256;BME280;57669;52.624;-1.688;2023-02-19T07:06:00;102077.92;;;5.66;54.35
70256;BME280;57669;52.624;-1.688;2023-02-19T07:08:26;102072.91;;;5.49;55.24
70256;BME280;57669;52.624;-1.688;2023-02-19T07:10:55;102066.64;;;6.19;53.30
70256;BME280;57669;52.624;-1.688;2023-02-19T07:13:17;102076.49;;;5.86;54.19
70256;BME280;57669;52.624;-1.688;2023-02-19T07:15:42;102085.13;;;6.03;53.52
70256;BME280;57669;52.624;-1.688;2023-02-19T07:18:08;102093.77;;;5.46;55.03
70256;BME280;57669;52.624;-1.688;2023-02-19T07:20:33;102094.64;;;5.80;54.10
70256;BME280;57669;52.624;-1.688;2023-02-19T07:22:58;102091.31;;;5.72;54.03
70256;BME280;57669;52.624;-1.688;2023-02-19T07:25:24;102093.50;;;6.28;52.99
70256;BME280;57669;52.624;-1.688;2023-02-19T07:27:49;102107.77;;;5.64;54.46
70256;BME280;57669;52.624;-1.688;2023-02-19T07:30:15;102122.49;;;5.55;54.96
70256;BME280;57669;52.624;-1.688;2023-02-19T07:32:41;102132.83;;;6.35;53.38
70256;BME280;57669;52.624;-1.688;2023-02-19T07:35:06;102126.76;;;5.81;53.65
70256;BME280;57669;52.624;-1.688;2023-02-19T07:37:31;102092.05;;;5.33;55.05
70256;BME280;57669;52.624;-1.688;2023-02-19T07:39:56;102087.04;;;5.13;55.48
70256;BME280;57669;52.624;-1.688;2023-02-19T07:42:22;102094.77;;;5.22;54.66
70256;BME280;57669;52.624;-1.688;2023-02-19T07:44:48;102112.29;;;5.90;53.72
70256;BME280;57669;52.624;-1.688;2023-02-19T07:47:14;102121.66;;;5.41;54.28
70256;BME280;57669;52.624;-1.688;2023-02-19T07:49:39;102116.18;;;5.50;54.58
70256;BME280;57669;52.624;-1.688;2023-02-19T07:52:04;102120.01;;;5.90;53.33
70256;BME280;57669;52.624;-1.688;2023-02-19T07:54:29;102126.61;;;6.11;52.53
70256;BME280;57669;52.624;-1.688;2023-02-19T07:56:55;102120.94;;;5.62;53.53
70256;BME280;57669;52.624;-1.688;2023-02-19T07:59:20;102107.15;;;5.71;54.03
70256;BME280;57669;52.624;-1.688;2023-02-19T08:01:46;102103.26;;;4.93;56.76
70256;BME280;57669;52.624;-1.688;2023-02-19T08:04:13;102099.84;;;5.23;56.17
70256;BME280;57669;52.624;-1.688;2023-02-19T08:06:37;102096.94;;;4.82;57.21
70256;BME280;57669;52.624;-1.688;2023-02-19T08:09:03;102105.62;;;4.77;57.46
70256;BME280;57669;52.624;-1.688;2023-02-19T08:11:28;102103.69;;;5.41;55.95
70256;BME280;57669;52.624;-1.688;2023-02-19T08:13:53;102108.91;;;4.88;56.53
70256;BME280;57669;52.624;-1.688;2023-02-19T08:16:19;102111.31;;;4.81;57.68
70256;BME280;57669;52.624;-1.688;2023-02-19T08:18:45;102121.08;;;4.72;57.12
70256;BME280;57669;52.624;-1.688;2023-02-19T08:21:11;102133.38;;;5.53;55.18
70256;BME280;57669;52.624;-1.688;2023-02-19T08:23:36;102141.76;;;5.59;56.06
70256;BME280;57669;52.624;-1.688;2023-02-19T08:26:02;102145.05;;;5.64;55.08
70256;BME280;57669;52.624;-1.688;2023-02-19T08:28:27;102140.72;;;5.70;54.88
70256;BME280;57669;52.624;-1.688;2023-02-19T08:30:52;102133.31;;;5.68;54.90
70256;BME280;57669;52.624;-1.688;2023-02-19T08:33:19;102131.62;;;5.74;55.53
70256;BME280;57669;52.624;-1.688;2023-02-19T08:35:44;102136.13;;;5.52;55.34
70256;BME280;57669;52.624;-1.688;2023-02-19T08:38:10;102146.71;;;6.06;54.23
70256;BME280;57669;52.624;-1.688;2023-02-19T08:40:36;102155.99;;;6.10;53.45
70256;BME280;57669;52.624;-1.688;2023-02-19T08:43:02;102174.03;;;5.80;54.42
70256;BME280;57669;52.624;-1.688;2023-02-19T08:45:25;102173.78;;;5.72;54.93
70256;BME280;57669;52.624;-1.688;2023-02-19T08:47:51;102166.79;;;5.09;55.93
70256;BME280;57669;52.624;-1.688;2023-02-19T08:50:17;102163.62;;;5.27;55.65
70256;BME280;57669;52.624;-1.688;2023-02-19T08:52:43;102166.22;;;5.57;55.39
70256;BME280;57669;52.624;-1.688;2023-02-19T08:55:08;102170.05;;;6.07;54.88
70256;BME280;57669;52.624;-1.688;2023-02-19T08:57:34;102173.43;;;5.99;54.33
70256;BME280;57669;52.624;-1.688;2023-02-19T09:00:00;102172.58;;;6.39;54.20
70256;BME280;57669;52.624;-1.688;2023-02-19T09:02:25;102169.21;;;6.58;53.10
70256;BME280;57669;52.624;-1.688;2023-02-19T09:04:51;102170.97;;;5.96;54.43
70256;BME280;57669;52.624;-1.688;2023-02-19T09:07:18;102156.08;;;6.05;54.04
70256;BME280;57669;52.624;-1.688;2023-02-19T09:09:42;102157.44;;;6.94;51.98
70256;BME280;57669;52.624;-1.688;2023-02-19T09:12:11;102162.58;;;6.26;52.81
70256;BME280;57669;52.624;-1.688;2023-02-19T09:14:34;102149.45;;;6.42;52.95
70256;BME280;57669;52.624;-1.688;2023-02-19T09:17:02;102154.82;;;6.85;52.23
70256;BME280;57669;52.624;-1.688;2023-02-19T09:19:26;102163.04;;;6.75;52.36
70256;BME280;57669;52.624;-1.688;2023-02-19T09:21:53;102167.01;;;6.42;53.44
70256;BME280;57669;52.624;-1.688;2023-02-19T09:24:18;102174.22;;;6.71;52.90
70256;BME280;57669;52.624;-1.688;2023-02-19T09:26:43;102187.21;;;6.24;53.52
70256;BME280;57669;52.624;-1.688;2023-02-19T09:29:09;102196.43;;;6.43;52.90
70256;BME280;57669;52.624;-1.688;2023-02-19T09:31:35;102213.82;;;6.50;53.12
70256;BME280;57669;52.624;-1.688;2023-02-19T09:34:01;102210.61;;;6.66;52.27
70256;BME280;57669;52.624;-1.688;2023-02-19T09:36:26;102224.45;;;6.01;54.14
70256;BME280;57669;52.624;-1.688;2023-02-19T09:38:52;102230.79;;;6.48;53.18
70256;BME280;57669;52.624;-1.688;2023-02-19T09:41:24;102238.19;;;5.91;54.64
70256;BME280;57669;52.624;-1.688;2023-02-19T09:43:44;102231.78;;;6.53;53.67
70256;BME280;57669;52.624;-1.688;2023-02-19T09:46:21;102239.63;;;5.63;55.02
70256;BME280;57669;52.624;-1.688;2023-02-19T09:48:36;102234.20;;;5.91;55.61
70256;BME280;57669;52.624;-1.688;2023-02-19T09:51:02;102232.95;;;5.77;54.83
70256;BME280;57669;52.624;-1.688;2023-02-19T09:53:32;102233.97;;;6.04;55.90
70256;BME280;57669;52.624;-1.688;2023-02-19T09:55:53;102246.75;;;6.00;54.47
70256;BME280;57669;52.624;-1.688;2023-02-19T09:58:23;102245.19;;;6.68;53.30
70256;BME280;57669;52.624;-1.688;2023-02-19T10:00:48;102238.97;;;6.02;53.87
70256;BME280;57669;52.624;-1.688;2023-02-19T10:03:16;102240.45;;;6.58;53.70
70256;BME280;57669;52.624;-1.688;2023-02-19T10:08:06;102233.10;;;6.14;53.69
70256;BME280;57669;52.624;-1.688;2023-02-19T10:10:29;102235.68;;;6.08;53.89
70256;BME280;57669;52.624;-1.688;2023-02-19T10:12:55;102232.64;;;6.88;52.80
70256;BME280;57669;52.624;-1.688;2023-02-19T10:15:25;102224.06;;;6.93;51.47
70256;BME280;57669;52.624;-1.688;2023-02-19T10:17:44;102222.20;;;7.36;50.49
70256;BME280;57669;52.624;-1.688;2023-02-19T10:20:13;102227.44;;;7.15;50.82
70256;BME280;57669;52.624;-1.688;2023-02-19T10:22:36;102227.16;;;7.27;51.49
70256;BME280;57669;52.624;-1.688;2023-02-19T10:25:02;102226.20;;;6.47;51.83
70256;BME280;57669;52.624;-1.688;2023-02-19T10:27:29;102227.13;;;7.63;50.23
70256;BME280;57669;52.624;-1.688;2023-02-19T10:29:53;102239.56;;;7.10;51.72
70256;BME280;57669;52.624;-1.688;2023-02-19T10:32:22;102237.77;;;6.87;51.29
70256;BME280;57669;52.624;-1.688;2023-02-19T10:34:45;102226.88;;;7.32;50.22
70256;BME280;57669;52.624;-1.688;2023-02-19T10:37:13;102222.05;;;7.59;50.71
70256;BME280;57669;52.624;-1.688;2023-02-19T10:39:39;102219.39;;;6.43;52.52
70256;BME280;57669;52.624;-1.688;2023-02-19T10:42:03;102215.54;;;6.94;52.00
70256;BME280;57669;52.624;-1.688;2023-02-19T10:44:30;102215.52;;;7.19;51.67
70256;BME280;57669;52.624;-1.688;2023-02-19T10:46:57;102219.21;;;6.68;52.15
70256;BME280;57669;52.624;-1.688;2023-02-19T10:49:23;102212.05;;;7.54;50.73
70256;BME280;57669;52.624;-1.688;2023-02-19T10:51:46;102202.79;;;7.61;50.85
70256;BME280;57669;52.624;-1.688;2023-02-19T10:54:16;102200.55;;;7.36;50.34
70256;BME280;57669;52.624;-1.688;2023-02-19T10:56:37;102197.85;;;8.17;48.46
70256;BME280;57669;52.624;-1.688;2023-02-19T10:59:13;102201.01;;;8.67;47.87
70256;BME280;57669;52.624;-1.688;2023-02-19T11:01:28;102204.93;;;7.65;48.37
70256;BME280;57669;52.624;-1.688;2023-02-19T11:06:24;102195.82;;;7.47;49.75
70256;BME280;57669;52.624;-1.688;2023-02-19T11:08:51;102194.23;;;7.84;48.83
70256;BME280;57669;52.624;-1.688;2023-02-19T11:11:21;102199.43;;;7.84;48.68
70256;BME280;57669;52.624;-1.688;2023-02-19T11:13:40;102211.29;;;7.55;49.49
70256;BME280;57669;52.624;-1.688;2023-02-19T11:16:04;102221.47;;;8.84;46.78
70256;BME280;57669;52.624;-1.688;2023-02-19T11:18:30;102222.77;;;7.88;48.25
70256;BME280;57669;52.624;-1.688;2023-02-19T11:20:56;102223.78;;;7.33;48.93
70256;BME280;57669;52.624;-1.688;2023-02-19T11:23:24;102228.30;;;7.55;48.95
70256;BME280;57669;52.624;-1.688;2023-02-19T11:25:47;102232.97;;;8.13;47.93
70256;BME280;57669;52.624;-1.688;2023-02-19T11:28:20;102233.45;;;7.49;48.27
70256;BME280;57669;52.624;-1.688;2023-02-19T11:30:39;102224.94;;;7.74;48.37
70256;BME280;57669;52.624;-1.688;2023-02-19T11:35:29;102215.56;;;7.59;49.11
70256;BME280;57669;52.624;-1.688;2023-02-19T11:37:57;102202.04;;;7.60;49.52
70256;BME280;57669;52.624;-1.688;2023-02-19T11:40:25;102199.81;;;8.03;48.52
70256;BME280;57669;52.624;-1.688;2023-02-19T11:42:50;102198.83;;;8.21;47.57
70256;BME280;57669;52.624;-1.688;2023-02-19T11:45:18;102197.90;;;9.00;46.53
70256;BME280;57669;52.624;-1.688;2023-02-19T11:50:13;102192.50;;;9.12;46.10
70256;BME280;57669;52.624;-1.688;2023-02-19T11:52:35;102183.86;;;9.04;46.02
70256;BME280;57669;52.624;-1.688;2023-02-19T11:55:02;102191.72;;;9.14;45.68
70256;BME280;57669;52.624;-1.688;2023-02-19T11:57:32;102187.94;;;9.13;45.38
70256;BME280;57669;52.624;-1.688;2023-02-19T11:59:50;102203.69;;;8.93;46.06
70256;BME280;57669;52.624;-1.688;2023-02-19T12:02:25;102198.51;;;9.21;44.28
70256;BME280;57669;52.624;-1.688;2023-02-19T12:07:12;102203.94;;;9.03;44.94
70256;BME280;57669;52.624;-1.688;2023-02-19T12:09:38;102199.63;;;9.00;45.62
70256;BME280;57669;52.624;-1.688;2023-02-19T12:12:10;102199.11;;;9.88;44.79
70256;BME280;57669;52.624;-1.688;2023-02-19T12:16:52;102215.83;;;8.96;45.14
70256;BME280;57669;52.624;-1.688;2023-02-19T12:19:23;102199.24;;;8.31;47.32
70256;BME280;57669;52.624;-1.688;2023-02-19T12:21:46;102192.98;;;8.08;47.30
70256;BME280;57669;52.624;-1.688;2023-02-19T12:24:20;102191.73;;;9.33;45.94
70256;BME280;57669;52.624;-1.688;2023-02-19T12:26:35;102185.94;;;8.94;46.17
70256;BME280;57669;52.624;-1.688;2023-02-19T12:29:07;102166.92;;;10.58;43.29
70256;BME280;57669;52.624;-1.688;2023-02-19T12:33:59;102154.86;;;11.27;41.07
70256;BME280;57669;52.624;-1.688;2023-02-19T12:36:19;102151.96;;;11.02;41.12
70256;BME280;57669;52.624;-1.688;2023-02-19T12:38:42;102152.93;;;10.46;42.39
70256;BME280;57669;52.624;-1.688;2023-02-19T12:41:15;102156.32;;;11.07;40.35
70256;BME280;57669;52.624;-1.688;2023-02-19T12:43:30;102142.92;;;11.02;40.66
70256;BME280;57669;52.624;-1.688;2023-02-19T12:45:58;102131.66;;;11.23;40.45
70256;BME280;57669;52.624;-1.688;2023-02-19T12:48:28;102123.29;;;11.09;40.26
70256;BME280;57669;52.624;-1.688;2023-02-19T12:50:51;102109.31;;;10.65;42.17
70256;BME280;57669;52.624;-1.688;2023-02-19T12:53:23;102115.77;;;11.35;40.93
70256;BME280;57669;52.624;-1.688;2023-02-19T12:55:42;102118.67;;;9.82;43.44
70256;BME280;57669;52.624;-1.688;2023-02-19T12:58:08;102108.77;;;11.08;40.62
70256;BME280;57669;52.624;-1.688;2023-02-19T13:00:33;102117.24;;;11.59;40.48
70256;BME280;57669;52.624;-1.688;2023-02-19T13:03:00;102124.45;;;11.49;40.20